Time;durP1;ratioP1;P1;durP2;ratioP2;P2;SDS_P1;SDS_P2;PMS_P1;PMS_P2;Temp;Humidity;BMP_temperature;BMP_pressure;BME280_temperature;BME280_humidity;BME280_pressure;Samples;Min_cycle;Max_cycle;Signal;HPM_P1;HPM_P2
2021/12/07 00:04:30;;;;;;;14.80;12.80;;;4.50;42.90;;;;;;10345583;28;20230;-77
2021/12/07 00:09:35;;;;;;;13.63;11.67;;;4.50;43.00;;;;;;10340572;28;20310;-77
2021/12/07 00:14:40;;;;;;;14.67;11.83;;;4.40;42.90;;;;;;10336671;28;20257;-77
2021/12/07 00:19:44;;;;;;;13.03;11.73;;;4.40;42.80;;;;;;10342814;28;20234;-77
2021/12/07 00:24:48;;;;;;;12.43;10.70;;;4.40;42.90;;;;;;10334428;28;20358;-77
2021/12/07 00:29:52;;;;;;;14.00;11.77;;;4.30;42.80;;;;;;10333826;28;20249;-77
2021/12/07 00:35:20;;;;;;;13.07;11.73;;;4.30;42.70;;;;;;10338866;28;20321;-77
2021/12/07 00:40:26;;;;;;;13.33;11.93;;;4.30;42.90;;;;;;10336957;28;20604;-77
2021/12/07 00:45:32;;;;;;;13.80;12.20;;;4.20;42.90;;;;;;10341815;28;20231;-77
2021/12/07 00:50:37;;;;;;;12.90;11.50;;;4.20;43.00;;;;;;10344705;28;20244;-77
2021/12/07 00:55:45;;;;;;;12.20;10.73;;;4.20;42.90;;;;;;10342667;28;20242;-77
2021/12/07 01:00:50;;;;;;;13.13;11.77;;;4.10;43.00;;;;;;10342844;28;20790;-77
2021/12/07 01:06:04;;;;;;;12.03;10.83;;;4.10;43.00;;;;;;10337750;28;20226;-77
2021/12/07 01:27:18;;;;;;;11.93;10.67;;;4.00;43.20;;;;;;10341969;28;20227;-77
2021/12/07 01:32:38;;;;;;;12.87;10.90;;;3.90;43.30;;;;;;10342173;28;20237;-77
2021/12/07 01:37:59;;;;;;;11.20;10.00;;;3.80;43.20;;;;;;10339067;28;20244;-77
2021/12/07 02:04:24;;;;;;;9.07;8.03;;;3.60;44.10;;;;;;10343428;28;20237;-77
2021/12/07 02:09:27;;;;;;;9.10;7.90;;;3.60;44.20;;;;;;10340096;28;20725;-77
2021/12/07 02:14:31;;;;;;;8.10;7.30;;;3.60;44.40;;;;;;10334460;28;20254;-77
2021/12/07 02:19:35;;;;;;;7.63;6.83;;;3.70;44.60;;;;;;10341781;28;20234;-77
2021/12/07 02:24:40;;;;;;;7.77;7.07;;;3.70;44.40;;;;;;10335258;28;20242;-77
2021/12/07 02:29:43;;;;;;;8.23;6.97;;;3.80;44.70;;;;;;10341403;28;20238;-77
2021/12/07 02:34:56;;;;;;;7.77;7.00;;;3.80;44.70;;;;;;10342722;28;20238;-77
2021/12/07 02:40:01;;;;;;;7.30;6.60;;;3.90;44.80;;;;;;10339382;28;20245;-77
2021/12/07 02:45:05;;;;;;;7.97;6.73;;;3.90;44.70;;;;;;10348725;28;20230;-77
2021/12/07 02:50:10;;;;;;;7.10;6.40;;;3.90;44.70;;;;;;10338716;28;20702;-77
2021/12/07 02:55:15;;;;;;;6.60;6.00;;;4.00;44.80;;;;;;10339875;28;20230;-77
2021/12/07 03:00:22;;;;;;;6.67;6.07;;;4.00;44.70;;;;;;10342591;28;20347;-77
2021/12/07 03:05:38;;;;;;;7.17;4.97;;;4.10;44.90;;;;;;10353613;28;20572;-77
2021/12/07 03:26:46;;;;;;;5.70;5.20;;;4.30;44.70;;;;;;10337802;28;20234;-77
2021/12/07 03:31:49;;;;;;;5.43;4.93;;;4.30;45.50;;;;;;10350216;28;20243;-77
2021/12/07 03:36:53;;;;;;;5.43;4.93;;;4.30;44.90;;;;;;10339268;28;20245;-77
2021/12/07 03:41:57;;;;;;;5.90;5.30;;;4.30;45.00;;;;;;10339857;28;20241;-77
2021/12/07 03:47:00;;;;;;;6.17;5.57;;;4.30;45.20;;;;;;10341898;28;20995;-77
2021/12/07 03:52:04;;;;;;;5.53;5.03;;;4.30;45.20;;;;;;10341564;28;20611;-77
2021/12/07 03:57:09;;;;;;;5.43;4.93;;;4.30;45.30;;;;;;10342555;28;20264;-77
2021/12/07 04:02:12;;;;;;;6.00;5.40;;;4.30;45.50;;;;;;10352254;28;20233;-77
2021/12/07 04:07:16;;;;;;;5.43;4.93;;;4.30;45.40;;;;;;10336783;28;20253;-77
2021/12/07 04:12:20;;;;;;;5.37;4.87;;;4.20;45.30;;;;;;10330114;28;20234;-78
2021/12/07 04:17:23;;;;;;;5.73;5.23;;;4.20;45.60;;;;;;10345807;28;20238;-77
2021/12/07 04:22:27;;;;;;;5.50;5.00;;;4.30;45.60;;;;;;10342196;28;20285;-78
2021/12/07 04:27:35;;;;;;;5.30;4.80;;;4.20;45.70;;;;;;10345943;28;20234;-77
2021/12/07 04:32:38;;;;;;;5.93;5.33;;;4.20;45.90;;;;;;10336850;28;20239;-77
2021/12/07 04:37:42;;;;;;;5.07;4.67;;;4.20;45.80;;;;;;10341909;28;20751;-77
2021/12/07 04:42:47;;;;;;;5.60;5.10;;;4.20;45.90;;;;;;10346371;28;20242;-77
2021/12/07 04:48:02;;;;;;;4.73;4.33;;;4.30;46.10;;;;;;10340775;28;20235;-77
2021/12/07 04:58:31;;;;;;;4.77;4.37;;;4.30;45.90;;;;;;10336516;28;20330;-78
2021/12/07 05:03:34;;;;;;;5.03;4.63;;;4.20;46.10;;;;;;10341591;28;20835;-78
2021/12/07 05:08:42;;;;;;;5.00;4.50;;;4.30;46.00;;;;;;10341887;28;20274;-78
2021/12/07 05:13:56;;;;;;;4.77;4.37;;;4.30;46.10;;;;;;10339469;28;20614;-77
2021/12/07 05:19:14;;;;;;;3.57;3.27;;;4.30;46.90;;;;;;10339788;28;20709;-77
2021/12/07 05:24:20;;;;;;;4.40;3.50;;;4.30;46.30;;;;;;10338549;28;20225;-78
2021/12/07 05:37:41;;;;;;;4.00;3.70;;;4.40;47.20;;;;;;10338614;28;20238;-77
2021/12/07 05:40:17;;;;;;;3.63;3.33;;;4.50;46.90;;;;;;10335684;28;20237;-77
2021/12/07 05:45:25;;;;;;;3.60;3.40;;;4.60;46.90;;;;;;10341186;28;20230;-75
2021/12/07 05:50:31;;;;;;;3.37;3.10;;;4.70;47.10;;;;;;10345825;28;20235;-75
2021/12/07 05:55:35;;;;;;;3.27;3.07;;;4.80;47.00;;;;;;10347893;28;20223;-75
2021/12/07 06:00:43;;;;;;;3.57;3.27;;;4.90;46.90;;;;;;10342146;28;20234;-75
2021/12/07 06:05:46;;;;;;;3.70;3.40;;;4.90;46.90;;;;;;10346359;28;20230;-75
2021/12/07 06:10:50;;;;;;;3.77;3.47;;;5.00;46.70;;;;;;10344661;28;20240;-75
2021/12/07 06:16:04;;;;;;;3.67;3.37;;;5.10;46.80;;;;;;10341827;28;21072;-75
2021/12/07 06:21:07;;;;;;;3.83;3.53;;;5.10;46.90;;;;;;10342133;28;20233;-75
2021/12/07 06:26:10;;;;;;;4.00;3.70;;;5.10;46.80;;;;;;10346740;28;20234;-75
2021/12/07 06:31:15;;;;;;;3.20;3.00;;;5.20;46.80;;;;;;10351184;28;20237;-75
2021/12/07 06:36:19;;;;;;;3.60;3.30;;;5.20;46.80;;;;;;10351568;28;20345;-75
2021/12/07 06:41:22;;;;;;;2.87;2.67;;;5.30;46.70;;;;;;10352872;28;20242;-75
2021/12/07 06:46:27;;;;;;;3.10;2.90;;;5.30;46.60;;;;;;10348704;28;20241;-75
2021/12/07 06:51:30;;;;;;;3.37;3.13;;;5.30;46.80;;;;;;10352631;28;20265;-75
2021/12/07 06:56:33;;;;;;;3.10;2.90;;;5.40;46.70;;;;;;10350947;28;20249;-76
2021/12/07 07:01:38;;;;;;;3.60;3.30;;;5.40;46.60;;;;;;10355961;28;20242;-76
2021/12/07 07:06:43;;;;;;;3.23;3.03;;;5.40;46.70;;;;;;10352272;28;20811;-75
2021/12/07 07:11:46;;;;;;;3.67;3.37;;;5.40;46.70;;;;;;10343377;28;20233;-76
2021/12/07 07:16:51;;;;;;;3.40;3.20;;;5.40;46.60;;;;;;10349704;28;20246;-75
2021/12/07 07:21:54;;;;;;;3.50;3.30;;;5.50;46.80;;;;;;10344675;28;20231;-75
2021/12/07 07:26:57;;;;;;;3.53;3.33;;;5.50;46.50;;;;;;10349632;28;20240;-75
2021/12/07 07:32:02;;;;;;;3.50;3.20;;;5.50;46.40;;;;;;10347906;28;20231;-76
2021/12/07 07:37:05;;;;;;;3.70;3.40;;;5.50;46.60;;;;;;10340072;28;20230;-76
2021/12/07 07:42:09;;;;;;;3.53;3.23;;;5.50;46.60;;;;;;10344916;28;20231;-77
2021/12/07 07:47:14;;;;;;;4.43;4.03;;;5.50;46.50;;;;;;10343052;28;20234;-77
2021/12/07 07:52:17;;;;;;;3.60;3.30;;;5.60;46.80;;;;;;10346219;28;20604;-77
2021/12/07 07:57:20;;;;;;;2.80;2.60;;;5.60;46.70;;;;;;10346950;28;20704;-77
2021/12/07 08:02:25;;;;;;;3.00;2.80;;;5.60;46.60;;;;;;10350409;28;20240;-77
2021/12/07 08:07:28;;;;;;;3.27;3.00;;;5.60;46.70;;;;;;10349225;28;20326;-77
2021/12/07 08:12:32;;;;;;;2.63;2.43;;;5.60;46.80;;;;;;10339632;28;20273;-76
2021/12/07 08:17:36;;;;;;;2.67;2.47;;;5.60;46.80;;;;;;10343874;28;20728;-76
2021/12/07 08:22:39;;;;;;;3.50;2.80;;;5.70;47.00;;;;;;10344263;28;20380;-76
2021/12/07 08:27:43;;;;;;;3.27;3.03;;;5.70;46.80;;;;;;10341525;28;20230;-76
2021/12/07 08:32:48;;;;;;;3.10;2.40;;;5.80;46.70;;;;;;10349998;28;20262;-76
2021/12/07 08:37:51;;;;;;;2.27;2.17;;;5.80;46.90;;;;;;10345254;28;20238;-76
2021/12/07 08:42:55;;;;;;;2.73;2.40;;;5.90;47.60;;;;;;10337781;28;20254;-76
2021/12/07 08:48:00;;;;;;;2.60;2.37;;;6.00;46.80;;;;;;10339630;28;20261;-77
2021/12/07 08:53:08;;;;;;;2.47;2.30;;;6.00;46.70;;;;;;10344552;28;20235;-77
2021/12/07 09:03:33;;;;;;;3.07;2.57;;;6.10;46.50;;;;;;10347890;28;20884;-77
2021/12/07 09:08:37;;;;;;;2.80;2.50;;;6.10;46.40;;;;;;10338674;28;20254;-78
2021/12/07 09:13:41;;;;;;;2.50;2.30;;;6.10;46.60;;;;;;10350894;28;20580;-75
2021/12/07 09:18:46;;;;;;;2.40;2.20;;;6.20;46.90;;;;;;10359887;28;20243;-75
2021/12/07 09:23:50;;;;;;;3.10;2.60;;;6.30;47.00;;;;;;10343444;28;20262;-75
2021/12/07 09:28:53;;;;;;;3.57;3.27;;;6.40;47.10;;;;;;10342747;28;20289;-77
2021/12/07 09:33:58;;;;;;;3.33;3.03;;;6.60;47.00;;;;;;10347926;28;20230;-77
2021/12/07 09:39:02;;;;;;;3.17;2.63;;;6.60;46.60;;;;;;10339071;28;20239;-78
2021/12/07 09:44:07;;;;;;;2.90;2.70;;;6.70;46.50;;;;;;10341936;28;20240;-78
2021/12/07 09:49:12;;;;;;;2.40;2.20;;;6.80;46.30;;;;;;10341709;28;20241;-77
2021/12/07 09:54:16;;;;;;;3.20;2.90;;;6.90;46.20;;;;;;10336039;28;20227;-78
2021/12/07 09:59:19;;;;;;;3.40;2.53;;;6.90;46.20;;;;;;10342118;28;20226;-78
2021/12/07 10:04:27;;;;;;;2.20;2.00;;;6.90;46.00;;;;;;10346587;28;20243;-78
2021/12/07 10:09:30;;;;;;;2.30;2.10;;;6.90;45.90;;;;;;10340114;28;20262;-78
2021/12/07 10:14:38;;;;;;;2.60;2.00;;;6.90;45.80;;;;;;10302480;23;20238;-77
2021/12/07 10:19:45;;;;;;;1.90;1.80;;;6.90;45.50;;;;;;10282910;28;20243;-77
2021/12/07 10:24:53;;;;;;;5.10;3.87;;;6.90;45.70;;;;;;10284748;28;20234;-77
2021/12/07 10:29:57;;;;;;;3.23;2.77;;;6.90;45.80;;;;;;10279066;28;20235;-77
2021/12/07 10:35:02;;;;;;;3.27;2.70;;;6.90;45.80;;;;;;10301370;28;20235;-77
2021/12/07 10:40:13;;;;;;;2.73;2.30;;;6.90;45.80;;;;;;10283265;28;20601;-77
2021/12/07 10:45:16;;;;;;;3.30;2.17;;;6.90;45.80;;;;;;10290188;28;20250;-77
2021/12/07 10:50:21;;;;;;;2.60;2.40;;;6.90;45.90;;;;;;10286865;28;20668;-77
2021/12/07 10:55:26;;;;;;;1.97;1.80;;;6.90;45.80;;;;;;10284794;28;20282;-77
2021/12/07 11:00:32;;;;;;;3.33;1.80;;;7.00;46.00;;;;;;10286783;28;20260;-77
2021/12/07 11:05:39;;;;;;;3.00;2.10;;;7.10;46.00;;;;;;10288056;28;20270;-77
2021/12/07 11:10:47;;;;;;;2.10;1.90;;;7.10;45.70;;;;;;10287992;28;20236;-77
2021/12/07 11:15:53;;;;;;;3.20;2.10;;;7.20;45.50;;;;;;10283503;28;20231;-77
2021/12/07 11:21:03;;;;;;;2.53;2.00;;;7.20;45.50;;;;;;10282990;28;20240;-77
2021/12/07 11:31:32;;;;;;;2.53;1.50;;;7.30;45.50;;;;;;10353206;28;20582;-70
2021/12/07 11:36:39;;;;;;;2.80;1.83;;;7.30;45.30;;;;;;10356611;28;22703;-69
2021/12/07 11:41:43;;;;;;;2.70;1.80;;;7.30;45.10;;;;;;10395564;28;20321;-70
2021/12/07 11:46:48;;;;;;;2.33;1.83;;;7.30;45.30;;;;;;10384963;28;20238;-70
2021/12/07 11:51:55;;;;;;;2.13;1.50;;;7.30;45.10;;;;;;10395043;28;20225;-70
2021/12/07 11:57:01;;;;;;;2.33;1.97;;;7.40;45.10;;;;;;10385633;28;20226;-71
2021/12/07 12:02:05;;;;;;;2.47;2.07;;;7.40;45.20;;;;;;10390630;28;20229;-71
2021/12/07 12:07:11;;;;;;;3.77;2.10;;;7.50;45.20;;;;;;10388267;28;20260;-71
2021/12/07 12:12:20;;;;;;;3.90;2.70;;;7.50;44.80;;;;;;10390203;28;20627;-71
2021/12/07 12:17:37;;;;;;;2.87;2.60;;;7.50;44.80;;;;;;10384408;28;20707;-71
2021/12/07 12:22:46;;;;;;;2.87;2.40;;;7.40;44.80;;;;;;10388158;28;20230;-71
2021/12/07 12:27:51;;;;;;;4.13;2.43;;;7.40;44.70;;;;;;10384111;28;20237;-70
2021/12/07 12:32:56;;;;;;;3.63;2.73;;;7.50;44.80;;;;;;10389490;28;20245;-71
2021/12/07 12:38:01;;;;;;;4.00;2.30;;;7.40;44.90;;;;;;10387585;28;20226;-71
2021/12/07 12:43:04;;;;;;;2.67;2.07;;;7.40;44.70;;;;;;10387906;28;20226;-70
2021/12/07 12:48:10;;;;;;;2.80;2.13;;;7.40;44.90;;;;;;10390084;28;20218;-70
2021/12/07 12:53:19;;;;;;;2.47;2.10;;;7.40;44.80;;;;;;10389114;28;20226;-70
2021/12/07 12:58:38;;;;;;;2.20;1.80;;;7.40;44.80;;;;;;10385020;28;20234;-69
2021/12/07 13:03:49;;;;;;;2.27;1.87;;;7.40;44.70;;;;;;10385067;28;20400;-71
2021/12/07 13:08:55;;;;;;;3.03;1.83;;;7.50;44.80;;;;;;10385375;28;20236;-71
2021/12/07 13:13:58;;;;;;;5.47;4.73;;;7.50;44.60;;;;;;10386651;28;20229;-71
2021/12/07 13:19:06;;;;;;;5.67;4.70;;;7.50;44.80;;;;;;10389727;28;20226;-71
2021/12/07 13:24:14;;;;;;;6.30;5.13;;;7.60;44.80;;;;;;10385510;28;20680;-73
2021/12/07 13:29:20;;;;;;;3.97;3.40;;;7.60;44.80;;;;;;10388414;28;20240;-73
2021/12/07 13:34:27;;;;;;;6.80;4.30;;;7.70;44.60;;;;;;10387244;28;20234;-73
2021/12/07 13:39:44;;;;;;;5.07;3.80;;;7.70;44.60;;;;;;10386911;28;20614;-71
2021/12/07 13:44:52;;;;;;;3.47;3.00;;;7.80;44.40;;;;;;10388171;28;20287;-71
2021/12/07 13:49:59;;;;;;;5.60;3.07;;;7.90;44.50;;;;;;10387831;28;20246;-71
2021/12/07 13:55:09;;;;;;;4.77;3.40;;;7.90;44.20;;;;;;10385510;28;20230;-71
2021/12/07 14:00:16;;;;;;;4.93;3.60;;;8.00;43.90;;;;;;10385288;28;20229;-71
2021/12/07 14:05:22;;;;;;;7.40;4.87;;;8.00;43.70;;;;;;10386679;28;20236;-70
2021/12/07 14:10:31;;;;;;;7.60;6.50;;;8.10;43.80;;;;;;10389024;28;20234;-69
2021/12/07 14:15:39;;;;;;;7.63;4.43;;;8.10;43.60;;;;;;10380373;28;20232;-69
2021/12/07 14:20:48;;;;;;;5.90;3.00;;;8.10;43.70;;;;;;10385987;28;20229;-71
2021/12/07 14:25:56;;;;;;;4.77;2.97;;;8.10;43.30;;;;;;10384428;28;20222;-71
2021/12/07 14:31:03;;;;;;;5.83;2.93;;;8.10;43.30;;;;;;10383412;28;20530;-71
2021/12/07 14:36:07;;;;;;;4.27;2.47;;;8.10;43.40;;;;;;10384973;28;21379;-71
2021/12/07 14:41:14;;;;;;;4.40;2.47;;;8.00;43.70;;;;;;10381247;28;20229;-71
2021/12/07 14:46:20;;;;;;;3.90;2.70;;;8.00;43.40;;;;;;10387236;28;20599;-71
2021/12/07 14:51:27;;;;;;;2.40;2.00;;;8.00;43.50;;;;;;10394224;28;20237;-71
2021/12/07 14:56:35;;;;;;;3.80;2.40;;;8.00;43.60;;;;;;10390827;28;20261;-71
2021/12/07 15:01:41;;;;;;;4.50;2.17;;;8.00;43.20;;;;;;10398196;28;20244;-73
2021/12/07 15:06:48;;;;;;;2.73;1.90;;;8.00;43.20;;;;;;10396278;28;20288;-73
2021/12/07 15:11:54;;;;;;;2.57;1.77;;;7.90;43.30;;;;;;10395376;28;20714;-75
2021/12/07 15:17:00;;;;;;;3.47;2.37;;;7.90;43.70;;;;;;10393040;28;20597;-74
2021/12/07 15:22:05;;;;;;;5.87;3.90;;;7.90;43.50;;;;;;10393718;28;20233;-73
2021/12/07 15:27:10;;;;;;;3.60;2.90;;;7.90;43.20;;;;;;10391812;28;20732;-73
2021/12/07 15:32:13;;;;;;;4.63;3.63;;;7.80;43.20;;;;;;10393563;28;20798;-74
2021/12/07 15:37:18;;;;;;;4.67;3.70;;;7.70;43.40;;;;;;10394157;28;20229;-74
2021/12/07 15:42:26;;;;;;;6.27;4.90;;;7.70;43.30;;;;;;10391864;28;20242;-74
2021/12/07 15:47:32;;;;;;;7.60;5.33;;;7.70;43.20;;;;;;10392502;28;20234;-74
2021/12/07 15:52:39;;;;;;;6.40;4.80;;;7.70;43.30;;;;;;10396030;28;20229;-74
2021/12/07 15:57:55;;;;;;;4.83;3.60;;;7.60;43.10;;;;;;10394365;28;20237;-75
2021/12/07 16:03:08;;;;;;;5.83;4.90;;;7.50;43.00;;;;;;10391681;28;20237;-74
2021/12/07 16:08:24;;;;;;;6.33;5.00;;;7.50;43.20;;;;;;10392754;28;20245;-71
2021/12/07 16:13:31;;;;;;;6.97;3.80;;;7.50;43.30;;;;;;10390033;28;20233;-72
2021/12/07 16:18:36;;;;;;;6.33;5.00;;;7.50;43.00;;;;;;10390844;28;20236;-71
2021/12/07 16:23:44;;;;;;;8.23;6.67;;;7.50;43.10;;;;;;10391878;28;20244;-71
2021/12/07 16:28:50;;;;;;;12.50;8.20;;;7.50;43.30;;;;;;10395188;28;20240;-72
2021/12/07 16:33:57;;;;;;;10.73;8.70;;;7.50;43.20;;;;;;10385953;28;20237;-75
2021/12/07 16:39:02;;;;;;;10.30;9.30;;;7.50;43.60;;;;;;10391945;28;20249;-72
2021/12/07 16:44:07;;;;;;;8.67;7.13;;;7.60;44.20;;;;;;10388658;28;20233;-73
2021/12/07 16:49:10;;;;;;;8.50;7.70;;;7.60;43.30;;;;;;10388356;28;20234;-72
2021/12/07 16:54:14;;;;;;;9.67;7.33;;;7.60;43.40;;;;;;10391643;28;20240;-72
2021/12/07 16:59:18;;;;;;;9.77;8.77;;;7.60;43.30;;;;;;10387585;28;20620;-72
2021/12/07 17:04:22;;;;;;;11.40;9.40;;;7.60;42.90;;;;;;10389658;28;20292;-72
2021/12/07 17:09:27;;;;;;;10.87;9.73;;;7.60;42.90;;;;;;10387023;28;20781;-72
2021/12/07 17:14:32;;;;;;;11.17;8.67;;;7.70;42.90;;;;;;10384809;28;20233;-70
2021/12/07 17:19:35;;;;;;;8.87;8.00;;;7.60;42.50;;;;;;10385209;28;20256;-70
2021/12/07 17:24:39;;;;;;;10.33;9.30;;;7.60;42.40;;;;;;10386857;28;20741;-70
2021/12/07 17:29:44;;;;;;;10.63;9.17;;;7.50;42.30;;;;;;10388496;28;20229;-70
2021/12/07 17:34:47;;;;;;;9.03;7.93;;;7.40;42.20;;;;;;10387623;28;20233;-70
2021/12/07 17:39:51;;;;;;;8.70;7.33;;;7.30;42.30;;;;;;10392952;28;20230;-72
2021/12/07 17:44:55;;;;;;;10.17;8.97;;;7.30;42.20;;;;;;10389846;28;20226;-70
2021/12/07 17:49:59;;;;;;;10.33;9.20;;;7.20;42.00;;;;;;10392725;28;20672;-70
2021/12/07 17:55:03;;;;;;;13.03;11.03;;;7.10;41.90;;;;;;10390853;28;20226;-73
2021/12/07 18:00:13;;;;;;;19.80;15.53;;;7.00;42.00;;;;;;10387696;28;20263;-73
2021/12/07 18:05:17;;;;;;;25.83;20.20;;;6.90;41.90;;;;;;10387675;28;20234;-69
2021/12/07 18:10:23;;;;;;;15.80;13.63;;;6.90;42.30;;;;;;10385184;28;20739;-69
2021/12/07 18:15:29;;;;;;;13.00;11.60;;;6.80;41.80;;;;;;10386157;28;20236;-69
2021/12/07 18:20:36;;;;;;;14.00;12.47;;;6.80;41.80;;;;;;10394738;28;20232;-69
2021/12/07 18:25:40;;;;;;;14.13;12.73;;;6.70;41.80;;;;;;10399336;28;20333;-69
2021/12/07 18:30:48;;;;;;;15.90;14.30;;;6.70;41.90;;;;;;10399803;28;20247;-70
2021/12/07 18:35:52;;;;;;;18.17;16.30;;;6.60;41.80;;;;;;10398543;28;20773;-70
2021/12/07 18:40:58;;;;;;;19.20;16.17;;;6.60;41.80;;;;;;10395287;28;20700;-70
2021/12/07 18:46:03;;;;;;;19.97;17.87;;;6.50;41.70;;;;;;10391812;28;20679;-70
2021/12/07 18:51:08;;;;;;;17.00;15.27;;;6.40;41.60;;;;;;10396669;28;20230;-70
2021/12/07 18:56:14;;;;;;;20.83;16.50;;;6.40;41.70;;;;;;10393466;28;20230;-70
2021/12/07 19:01:19;;;;;;;15.43;13.93;;;6.30;41.60;;;;;;10393935;28;20595;-70
2021/12/07 19:06:22;;;;;;;13.97;12.67;;;6.30;41.50;;;;;;10395260;28;20238;-71
2021/12/07 19:11:27;;;;;;;15.00;12.17;;;6.20;41.60;;;;;;10393708;28;20232;-71
2021/12/07 19:16:32;;;;;;;13.10;11.70;;;6.10;41.50;;;;;;10395199;28;20723;-71
2021/12/07 19:21:35;;;;;;;9.90;8.90;;;6.00;41.40;;;;;;10393895;28;20234;-71
2021/12/07 19:26:39;;;;;;;13.63;9.37;;;6.00;41.60;;;;;;10396172;28;20527;-72
2021/12/07 19:31:44;;;;;;;10.60;9.60;;;5.90;41.70;;;;;;10394297;28;20230;-71
2021/12/07 19:36:48;;;;;;;10.17;9.17;;;5.90;41.60;;;;;;10393974;28;20244;-71
2021/12/07 19:41:52;;;;;;;10.20;8.17;;;5.80;41.70;;;;;;10394423;28;20532;-71
2021/12/07 19:46:57;;;;;;;10.63;7.80;;;5.70;41.70;;;;;;10392212;28;20234;-72
2021/12/07 19:52:01;;;;;;;10.03;8.60;;;5.60;41.60;;;;;;10391005;28;20659;-71
2021/12/07 19:57:08;;;;;;;9.00;8.10;;;5.60;41.80;;;;;;10393885;28;20667;-71
2021/12/07 20:02:18;;;;;;;8.00;7.27;;;5.60;41.70;;;;;;10396396;28;20226;-71
2021/12/07 20:07:22;;;;;;;10.17;6.47;;;5.50;41.50;;;;;;10398492;28;20280;-71
2021/12/07 20:12:27;;;;;;;7.23;5.13;;;5.50;41.70;;;;;;10395701;28;20953;-71
2021/12/07 20:17:33;;;;;;;6.20;5.00;;;5.40;41.70;;;;;;10392156;28;20230;-71
2021/12/07 20:22:37;;;;;;;5.53;4.70;;;5.40;41.80;;;;;;10394841;28;20225;-71
2021/12/07 20:27:42;;;;;;;6.03;5.37;;;5.40;42.10;;;;;;10396337;28;20655;-71
2021/12/07 20:32:48;;;;;;;7.27;5.20;;;5.30;42.10;;;;;;10400583;28;20234;-71
2021/12/07 20:37:53;;;;;;;5.97;5.37;;;5.40;42.00;;;;;;10387464;28;20244;-70
2021/12/07 20:43:01;;;;;;;5.90;4.90;;;5.40;42.40;;;;;;10377644;28;20229;-70
2021/12/07 20:48:07;;;;;;;5.30;4.80;;;5.40;42.20;;;;;;10391565;28;20272;-70
2021/12/07 20:53:13;;;;;;;4.40;3.90;;;5.40;41.90;;;;;;10383316;28;20253;-70
2021/12/07 20:58:19;;;;;;;5.00;4.50;;;5.40;41.80;;;;;;10387720;28;20793;-69
2021/12/07 21:03:25;;;;;;;6.77;5.20;;;5.30;41.60;;;;;;10388453;28;20313;-69
2021/12/07 21:08:32;;;;;;;4.73;4.23;;;5.20;41.50;;;;;;10385905;28;20230;-69
2021/12/07 21:13:37;;;;;;;4.20;3.80;;;5.10;41.70;;;;;;10386059;28;20233;-69
2021/12/07 21:18:44;;;;;;;4.33;3.80;;;5.10;41.60;;;;;;10386196;28;20236;-69
2021/12/07 21:23:51;;;;;;;4.87;3.97;;;5.10;41.90;;;;;;10386264;28;20237;-69
2021/12/07 21:29:02;;;;;;;4.33;3.80;;;5.00;41.80;;;;;;10386037;28;20715;-69
2021/12/07 21:34:07;;;;;;;5.67;3.67;;;5.00;41.90;;;;;;10390206;28;20225;-69
2021/12/07 21:39:11;;;;;;;4.20;3.80;;;5.00;41.90;;;;;;10391689;28;20291;-69
2021/12/07 21:44:14;;;;;;;4.53;3.70;;;4.90;41.90;;;;;;10388794;28;20317;-69
2021/12/07 21:49:19;;;;;;;5.00;3.57;;;4.90;41.90;;;;;;10382559;28;20618;-69
2021/12/07 21:54:23;;;;;;;5.07;3.97;;;4.90;41.90;;;;;;10384804;28;20225;-69
2021/12/07 21:59:27;;;;;;;3.93;3.53;;;4.90;41.90;;;;;;10392591;28;20239;-70
2021/12/07 22:04:31;;;;;;;4.27;2.77;;;4.90;41.90;;;;;;10396488;28;20233;-69
2021/12/07 22:09:35;;;;;;;4.43;3.00;;;4.80;41.90;;;;;;10393534;28;20221;-69
2021/12/07 22:14:38;;;;;;;3.17;2.53;;;4.80;42.00;;;;;;10390416;28;20795;-69
2021/12/07 22:19:43;;;;;;;3.33;2.40;;;4.70;41.90;;;;;;10395494;28;20230;-69
2021/12/07 22:24:47;;;;;;;4.80;2.50;;;4.70;42.00;;;;;;10393538;28;20593;-69
2021/12/07 22:29:51;;;;;;;2.87;2.33;;;4.60;42.30;;;;;;10391782;28;20234;-69
2021/12/07 22:34:55;;;;;;;2.30;2.10;;;4.60;42.40;;;;;;10394152;28;20599;-69
2021/12/07 22:40:00;;;;;;;2.53;2.30;;;4.70;42.50;;;;;;10396786;28;20260;-69
2021/12/07 22:45:03;;;;;;;2.40;2.20;;;4.60;42.40;;;;;;10395496;28;20234;-69
2021/12/07 22:50:13;;;;;;;2.47;2.27;;;4.60;42.40;;;;;;10392046;28;20639;-69
2021/12/07 22:55:18;;;;;;;2.63;2.20;;;4.60;42.40;;;;;;10394973;28;20236;-69
2021/12/07 23:00:27;;;;;;;3.37;2.40;;;4.70;42.10;;;;;;10395494;28;20730;-69
2021/12/07 23:05:32;;;;;;;2.97;2.13;;;4.70;41.90;;;;;;10395123;28;20240;-69
2021/12/07 23:10:37;;;;;;;3.10;2.23;;;4.70;41.90;;;;;;10387682;28;20252;-69
2021/12/07 23:15:43;;;;;;;2.80;2.30;;;4.70;41.70;;;;;;10384092;28;20617;-69
2021/12/07 23:20:49;;;;;;;2.47;2.00;;;4.70;42.40;;;;;;10384839;28;20235;-69
2021/12/07 23:25:54;;;;;;;2.90;2.07;;;4.60;41.60;;;;;;10388293;28;20478;-69
2021/12/07 23:31:01;;;;;;;2.83;2.27;;;4.60;41.70;;;;;;10388154;28;20230;-70
2021/12/07 23:36:10;;;;;;;2.93;2.60;;;4.70;41.90;;;;;;10387696;28;20234;-69
2021/12/07 23:41:15;;;;;;;4.53;2.13;;;4.40;41.70;;;;;;10385234;28;20340;-69
2021/12/07 23:46:19;;;;;;;3.70;2.13;;;4.50;41.90;;;;;;10389482;28;20240;-68
2021/12/07 23:51:26;;;;;;;2.53;2.20;;;4.40;41.90;;;;;;10391737;28;20305;-68
2021/12/07 23:56:29;;;;;;;2.73;2.17;;;4.40;41.90;;;;;;10393575;28;20237;-69
